Time;durP1;ratioP1;P1;durP2;ratioP2;P2;SDS_P1;SDS_P2;PMS_P1;PMS_P2;Temp;Humidity;BMP_temperature;BMP_pressure;BME280_temperature;BME280_humidity;BME280_pressure;Samples;Min_cycle;Max_cycle;Signal;HPM_P1;HPM_P2
2023/01/11 08:41:27;;;;;;;;;1.00;0.75;;;;;10.13;100.00;100800.25;4877814;29;45352;-93
2023/01/11 08:57:11;;;;;;;;;1.00;1.00;;;;;8.17;100.00;100473.16;4901919;23;45024;-92
2023/01/11 08:59:40;;;;;;;;;1.00;0.00;;;;;9.16;100.00;100638.84;4861918;29;47289;-93
2023/01/11 09:02:06;;;;;;;;;0.00;0.00;;;;;8.87;100.00;100600.53;4858350;29;45358;-93
2023/01/11 09:04:32;;;;;;;;;2.00;0.75;;;;;10.23;100.00;100837.97;4873419;29;45429;-92
2023/01/11 09:07:08;;;;;;;;;2.00;0.00;;;;;9.78;100.00;100736.50;4879820;29;45293;-92
2023/01/11 09:09:34;;;;;;;;;2.00;1.50;;;;;8.47;100.00;100500.91;4817225;29;45390;-93
2023/01/11 09:12:18;;;;;;;;;2.00;1.00;;;;;8.75;100.00;100544.47;4791813;29;44735;-91
2023/01/11 09:14:51;;;;;;;;;2.00;2.00;;;;;8.88;100.00;100569.75;4811422;29;44892;-93
2023/01/11 09:17:19;;;;;;;;;2.50;1.25;;;;;8.30;100.00;100461.56;4801511;29;45558;-93
2023/01/11 09:19:45;;;;;;;;;1.00;1.00;;;;;9.95;100.00;100730.97;4783985;29;46916;-93
2023/01/11 09:22:11;;;;;;;;;1.00;1.00;;;;;8.95;100.00;100545.06;4795795;29;45679;-93
2023/01/11 09:24:37;;;;;;;;;1.00;1.00;;;;;8.63;100.00;100498.94;4799462;29;45517;-93
2023/01/11 09:30:43;;;;;;;;;2.50;0.00;;;;;10.33;100.00;100770.94;4815463;29;45437;-95
2023/01/11 09:36:49;;;;;;;;;1.00;1.00;;;;;8.38;100.00;100450.06;4822543;29;45283;-91
2023/01/11 09:39:43;;;;;;;;;1.00;1.00;;;;;9.33;100.00;100619.28;4792976;29;45509;-90
2023/01/11 09:42:41;;;;;;;;;1.75;1.75;;;;;7.70;99.67;100371.91;4831564;29;46377;-92
2023/01/11 09:46:08;;;;;;;;;2.25;1.00;;;;;10.72;100.00;100889.25;4838360;29;45406;-92
2023/01/11 09:48:59;;;;;;;;;0.75;0.00;;;;;9.18;99.84;100636.19;4836591;29;45456;-95
2023/01/11 10:32:33;;;;;;;;;0.00;0.00;;;;;11.19;95.20;100851.44;4847055;29;45448;-92
2023/01/11 10:35:23;;;;;;;;;3.00;1.00;;;;;11.88;94.43;100973.69;4862909;29;45422;-91
2023/01/11 10:41:14;;;;;;;;;2.75;1.00;;;;;10.55;93.49;100673.69;4845887;29;45352;-92
2023/01/11 10:43:46;;;;;;;;;4.25;0.50;;;;;12.47;93.04;100942.50;4822475;29;45806;-92
2023/01/11 10:46:44;;;;;;;;;;;;;;;;;;;;;
2023/01/11 10:49:42;;;;;;;;;1.00;1.00;;;;;12.86;91.09;100927.47;4848108;29;69902;-91
2023/01/11 10:52:45;;;;;;;;;;;;;;;;;;;;;
2023/01/11 10:55:43;;;;;;;;;1.75;1.75;;;;;12.69;89.29;100778.47;4850934;29;71957;-92
2023/01/11 10:58:57;;;;;;;;;1.50;0.75;;;;;14.18;87.66;100949.69;4838720;29;45491;-92
2023/01/11 11:01:49;;;;;;;;;2.00;2.00;;;;;13.73;86.12;100808.44;4855604;29;45408;-93
2023/01/11 11:04:32;;;;;;;;;6.25;3.00;;;;;14.82;86.11;100953.13;4845718;29;45459;-91
2023/01/11 11:07:33;;;;;;;;;;;;;;;;;;;;;
2023/01/11 11:10:41;;;;;;;;;5.25;1.75;;;;;13.87;84.45;100758.38;4824868;29;69698;-91
2023/01/11 11:13:20;;;;;;;;;1.00;1.00;;;;;13.88;85.40;100732.69;4813223;29;45243;-89
2023/01/11 11:16:22;;;;;;;;;1.50;1.50;;;;;15.59;84.31;100959.44;4823200;29;47191;-92
2023/01/11 11:18:49;;;;;;;;;1.00;1.00;;;;;14.99;83.60;100803.56;4798668;29;45578;-86
2023/01/11 11:21:21;;;;;;;;;3.00;1.00;;;;;16.21;82.70;100956.38;4824054;29;45461;-87
2023/01/11 11:24:26;;;;;;;;;0.75;0.75;;;;;15.85;82.33;100847.53;4823403;29;45561;-86
2023/01/11 11:26:57;;;;;;;;;0.25;0.25;;;;;16.61;81.62;100939.72;4828901;29;46242;-90
2023/01/11 11:33:07;;;;;;;;;2.50;1.00;;;;;16.62;79.48;100826.72;4759513;29;45464;-90
2023/01/11 11:35:47;;;;;;;;;0.50;0.50;;;;;17.73;80.01;100962.72;4765271;29;45709;-92
2023/01/11 11:38:40;;;;;;;;;3.50;2.25;;;;;16.71;80.05;100745.41;4761027;29;47590;-92
2023/01/11 11:41:15;;;;;;;;;1.00;1.00;;;;;16.09;79.68;100638.63;4772198;29;46043;-92
2023/01/11 11:43:45;;;;;;;;;1.00;1.00;;;;;17.72;81.00;100907.56;4775433;29;45515;-91
2023/01/11 11:46:13;;;;;;;;;0.25;0.25;;;;;18.03;81.58;100973.03;4776376;29;45475;-92
2023/01/11 11:48:40;;;;;;;;;1.25;0.00;;;;;17.18;82.01;100880.50;4784852;29;46281;-91
2023/01/11 11:51:13;;;;;;;;;0.50;0.50;;;;;17.28;82.74;100937.94;4781851;29;45488;-92
2023/01/11 11:53:45;;;;;;;;;1.00;1.00;;;;;16.28;83.51;100792.56;4788891;29;45844;-91
2023/01/11 11:56:20;;;;;;;;;1.50;0.00;;;;;17.43;82.46;101002.31;4791806;29;44812;-91
2023/01/11 11:58:46;;;;;;;;;2.00;1.00;;;;;16.02;82.20;100741.16;4785688;29;48186;-90
2023/01/11 12:01:39;;;;;;;;;2.75;0.00;;;;;17.75;81.55;100982.25;4776770;29;45392;-91
2023/01/11 12:04:18;;;;;;;;;2.00;1.00;;;;;18.15;80.37;100976.97;4767060;29;45422;-91
2023/01/11 12:06:52;;;;;;;;;3.00;1.00;;;;;18.42;79.95;100978.38;4767530;29;45402;-96
2023/01/11 12:09:40;;;;;;;;;1.00;1.00;;;;;17.91;79.48;100855.00;4782056;29;46630;-96
2023/01/11 12:12:08;;;;;;;;;1.50;1.50;;;;;18.91;78.59;100974.34;4832600;29;45383;-96
2023/01/11 12:15:04;;;;;;;;;;;;;;;;;;;;;
2023/01/11 12:21:10;;;;;;;;;1.25;1.25;;;;;16.03;77.99;100580.25;4849087;29;45343;-96
2023/01/11 12:23:48;;;;;;;;;0.50;0.00;;;;;16.72;79.53;100755.16;4851718;29;44893;-96
2023/01/11 12:30:22;;;;;;;;;1.75;1.00;;;;;15.45;81.11;100658.94;4841968;29;45267;-94
2023/01/11 12:33:00;;;;;;;;;3.00;2.00;;;;;17.17;82.14;100981.13;4832564;29;45173;-93
2023/01/11 12:35:47;;;;;;;;;0.00;0.00;;;;;17.20;81.61;100978.31;4807410;29;45564;-95
2023/01/11 12:39:03;;;;;;;;;1.25;1.25;;;;;17.09;81.17;100977.88;4801645;29;45415;-95
2023/01/11 12:41:50;;;;;;;;;1.50;1.50;;;;;17.15;82.25;100980.28;4800786;29;44790;-94
